Time;durP1;ratioP1;P1;durP2;ratioP2;P2;SDS_P1;SDS_P2;PMS_P1;PMS_P2;Temp;Humidity;BMP_temperature;BMP_pressure;BME280_temperature;BME280_humidity;BME280_pressure;Samples;Min_cycle;Max_cycle;Signal;HPM_P1;HPM_P2
2023/01/19 00:00:05;;;;;;;9.10;5.90;;;1.70;99.90;;;;;;5051977;28;20183;-71
2023/01/19 00:02:31;;;;;;;6.90;3.70;;;1.60;99.90;;;;;;5052011;28;20587;-70
2023/01/19 00:04:58;;;;;;;5.40;3.77;;;1.60;99.90;;;;;;5057946;28;20426;-70
2023/01/19 00:07:23;;;;;;;5.17;4.07;;;1.60;99.90;;;;;;5071639;28;20213;-72
2023/01/19 00:09:49;;;;;;;8.30;4.80;;;1.60;99.90;;;;;;5071928;28;20411;-70
2023/01/19 00:12:14;;;;;;;8.83;4.13;;;1.60;99.90;;;;;;5070742;28;20217;-71
2023/01/19 00:14:40;;;;;;;5.23;3.90;;;1.70;99.90;;;;;;5071662;28;20627;-71
2023/01/19 00:17:06;;;;;;;7.00;5.03;;;1.80;99.90;;;;;;5063388;28;20664;-72
2023/01/19 00:19:31;;;;;;;10.50;4.43;;;1.80;99.90;;;;;;5051554;28;20212;-71
2023/01/19 00:21:57;;;;;;;10.67;4.20;;;1.90;99.90;;;;;;5051763;28;20171;-71
2023/01/19 00:24:22;;;;;;;5.10;3.90;;;2.00;99.90;;;;;;5051370;28;20684;-72
2023/01/19 00:26:48;;;;;;;5.37;3.90;;;2.00;99.90;;;;;;5052098;28;20274;-72
2023/01/19 00:29:14;;;;;;;3.47;3.17;;;2.10;99.90;;;;;;5071813;28;20203;-72
2023/01/19 00:31:40;;;;;;;6.60;3.97;;;2.10;99.90;;;;;;5070581;28;20177;-72
2023/01/19 00:34:06;;;;;;;5.37;4.70;;;2.10;99.90;;;;;;5070249;28;20965;-72
2023/01/19 00:36:32;;;;;;;7.90;3.97;;;2.20;99.90;;;;;;5070120;28;20544;-72
2023/01/19 00:38:58;;;;;;;6.10;4.07;;;2.20;99.90;;;;;;5056345;28;20533;-72
2023/01/19 00:44:08;;;;;;;6.27;4.10;;;2.10;99.90;;;;;;5055950;28;20189;-68
2023/01/19 00:46:34;;;;;;;4.70;3.40;;;2.10;99.90;;;;;;5055216;28;20446;-71
2023/01/19 00:48:59;;;;;;;5.67;4.37;;;2.00;99.90;;;;;;5055506;28;21116;-71
2023/01/19 00:51:25;;;;;;;4.47;2.70;;;2.10;99.90;;;;;;5055607;28;20507;-72
2023/01/19 00:53:50;;;;;;;5.40;3.87;;;2.00;99.90;;;;;;5055492;28;20321;-71
2023/01/19 00:56:16;;;;;;;4.33;3.07;;;2.00;99.90;;;;;;5055222;28;20171;-71
2023/01/19 00:58:43;;;;;;;3.37;2.60;;;1.90;99.90;;;;;;5053979;28;20281;-71
2023/01/19 01:01:09;;;;;;;4.80;3.10;;;1.90;99.90;;;;;;5058198;28;20222;-71
2023/01/19 01:03:35;;;;;;;5.03;3.40;;;1.90;99.90;;;;;;5075225;28;20418;-71
2023/01/19 01:06:02;;;;;;;4.63;2.90;;;1.80;99.90;;;;;;5074894;28;20520;-73
2023/01/19 01:08:31;;;;;;;3.80;3.40;;;1.90;99.90;;;;;;5075312;28;20585;-71
2023/01/19 01:10:57;;;;;;;3.90;2.80;;;1.90;99.90;;;;;;5075340;28;20407;-71
2023/01/19 01:13:22;;;;;;;13.60;3.60;;;1.90;99.90;;;;;;5068561;28;20425;-71
2023/01/19 01:15:52;;;;;;;4.03;2.97;;;1.90;99.90;;;;;;5054792;28;20208;-71
2023/01/19 01:18:18;;;;;;;3.50;2.27;;;1.90;99.90;;;;;;5055258;28;20187;-71
2023/01/19 01:20:44;;;;;;;3.87;2.87;;;1.90;99.90;;;;;;5055021;28;20414;-71
2023/01/19 01:23:09;;;;;;;3.87;2.57;;;1.90;99.90;;;;;;5054548;28;20496;-71
2023/01/19 01:25:37;;;;;;;4.23;2.83;;;1.80;99.90;;;;;;5070752;28;20181;-71
2023/01/19 01:28:05;;;;;;;2.47;2.17;;;1.80;99.90;;;;;;5074668;28;20225;-71
2023/01/19 01:30:31;;;;;;;4.10;2.53;;;1.70;99.90;;;;;;5074902;28;20763;-72
2023/01/19 01:32:57;;;;;;;5.27;3.13;;;1.70;99.90;;;;;;5070257;28;20405;-72
2023/01/19 01:35:22;;;;;;;10.07;3.83;;;1.70;99.90;;;;;;5054485;28;20170;-72
2023/01/19 01:37:48;;;;;;;5.10;2.47;;;1.80;99.90;;;;;;5054400;28;20230;-73
2023/01/19 01:40:16;;;;;;;3.77;2.93;;;1.90;99.90;;;;;;5054847;28;20297;-73
2023/01/19 01:42:42;;;;;;;4.03;3.30;;;2.10;99.90;;;;;;5056440;28;20189;-73
2023/01/19 01:45:34;;;;;;;3.53;2.40;;;2.10;99.90;;;;;;5072051;28;20902;-72
2023/01/19 01:48:08;;;;;;;4.43;3.43;;;2.20;99.90;;;;;;5054355;28;20986;-72
2023/01/19 01:50:38;;;;;;;4.40;3.10;;;2.10;99.90;;;;;;5053527;28;20797;-73
2023/01/19 01:53:09;;;;;;;2.60;2.40;;;2.10;99.90;;;;;;5054193;28;20429;-73
2023/01/19 01:55:39;;;;;;;5.60;3.10;;;2.10;99.90;;;;;;5063768;28;20408;-71
2023/01/19 01:58:08;;;;;;;6.93;3.70;;;2.10;99.90;;;;;;5074266;28;20477;-71
2023/01/19 02:02:49;;;;;;;3.63;3.07;;;2.00;99.90;;;;;;5074387;28;20490;-71
2023/01/19 02:03:22;;;;;;;2.90;2.70;;;2.00;99.90;;;;;;5074213;28;20934;-72
2023/01/19 02:05:48;;;;;;;3.23;2.50;;;2.00;99.90;;;;;;5073751;28;20408;-71
2023/01/19 02:13:58;;;;;;;3.97;2.90;;;1.90;99.90;;;;;;5073710;28;20419;-71
2023/01/19 02:16:24;;;;;;;3.40;3.10;;;1.70;99.90;;;;;;5072822;28;20794;-72
2023/01/19 02:18:50;;;;;;;9.87;3.00;;;1.70;99.90;;;;;;5073785;28;20208;-72
2023/01/19 02:21:18;;;;;;;3.13;2.83;;;1.50;99.90;;;;;;5073873;28;20626;-73
2023/01/19 02:23:44;;;;;;;7.20;3.73;;;1.60;99.90;;;;;;5073846;28;20170;-71
2023/01/19 02:26:14;;;;;;;4.60;3.40;;;1.40;99.90;;;;;;5073272;28;20451;-72
2023/01/19 02:28:44;;;;;;;5.87;3.40;;;1.40;99.90;;;;;;5073786;28;20219;-74
2023/01/19 02:31:10;;;;;;;4.07;3.00;;;1.30;99.90;;;;;;5073244;28;20422;-73
2023/01/19 02:33:36;;;;;;;5.33;3.07;;;1.30;99.90;;;;;;5073446;28;20413;-71
2023/01/19 02:36:02;;;;;;;8.03;3.93;;;1.20;99.90;;;;;;5073108;28;20406;-71
2023/01/19 02:38:29;;;;;;;7.77;5.00;;;1.20;99.90;;;;;;5073095;28;20479;-72
2023/01/19 02:40:57;;;;;;;5.47;3.37;;;1.20;99.90;;;;;;5068551;28;20421;-71
2023/01/19 02:43:23;;;;;;;10.83;3.77;;;1.20;99.90;;;;;;5053392;28;20416;-72
2023/01/19 02:45:49;;;;;;;6.27;3.53;;;1.30;99.90;;;;;;5053107;28;20402;-71
2023/01/19 02:48:17;;;;;;;9.53;4.00;;;1.20;99.90;;;;;;5053237;28;20432;-73
2023/01/19 02:50:48;;;;;;;7.83;3.37;;;1.30;99.90;;;;;;5060698;28;20169;-72
2023/01/19 02:53:37;;;;;;;9.17;3.80;;;1.30;99.90;;;;;;5068406;28;20469;-71
2023/01/19 02:56:24;;;;;;;4.60;3.60;;;1.30;99.90;;;;;;5051783;28;20792;-73
2023/01/19 02:59:36;;;;;;;5.03;3.83;;;1.30;99.90;;;;;;5053117;28;20463;-70
2023/01/19 03:02:25;;;;;;;3.80;3.10;;;1.30;99.90;;;;;;5051120;28;20412;-71
2023/01/19 03:05:16;;;;;;;4.93;3.43;;;1.30;99.90;;;;;;5055664;28;20786;-71
2023/01/19 03:08:13;;;;;;;4.77;3.80;;;1.20;99.90;;;;;;5073052;28;20980;-69
2023/01/19 03:10:38;;;;;;;8.10;3.50;;;1.20;99.90;;;;;;5071600;28;20413;-70
2023/01/19 03:13:15;;;;;;;3.40;2.77;;;1.20;99.90;;;;;;5068221;28;20405;-70
2023/01/19 03:15:48;;;;;;;13.30;4.17;;;1.20;99.90;;;;;;5069430;28;20213;-71
2023/01/19 03:18:18;;;;;;;8.90;3.40;;;1.20;99.90;;;;;;5072827;28;20416;-72
2023/01/19 03:20:45;;;;;;;4.20;3.17;;;1.10;99.90;;;;;;5072796;28;20397;-70
2023/01/19 03:23:14;;;;;;;6.13;3.33;;;1.10;99.90;;;;;;5071588;28;20414;-71
2023/01/19 03:25:43;;;;;;;10.13;3.63;;;1.10;99.90;;;;;;5072205;28;20404;-72
2023/01/19 03:28:08;;;;;;;9.00;3.30;;;1.10;99.90;;;;;;5072035;28;20525;-71
2023/01/19 03:30:39;;;;;;;6.90;3.57;;;1.10;99.90;;;;;;5072429;28;20991;-70
2023/01/19 03:33:10;;;;;;;5.40;4.03;;;1.10;99.90;;;;;;5071983;28;20551;-70
2023/01/19 03:35:40;;;;;;;3.90;3.27;;;1.10;99.90;;;;;;5072101;28;20417;-71
2023/01/19 03:38:13;;;;;;;3.40;3.10;;;1.00;99.90;;;;;;5072023;28;20451;-71
2023/01/19 03:40:40;;;;;;;7.30;3.60;;;1.10;99.90;;;;;;5072246;28;20437;-70
2023/01/19 03:43:06;;;;;;;4.30;3.57;;;1.10;99.90;;;;;;5067697;28;20443;-69
2023/01/19 03:45:35;;;;;;;4.50;3.67;;;1.20;99.90;;;;;;5051077;28;20417;-70
2023/01/19 03:48:01;;;;;;;4.60;3.43;;;1.20;99.90;;;;;;5050878;28;20475;-70
2023/01/19 03:50:28;;;;;;;7.23;3.27;;;1.30;99.90;;;;;;5052259;28;20400;-70
2023/01/19 03:53:09;;;;;;;4.70;3.33;;;1.30;99.90;;;;;;5066256;28;20416;-71
2023/01/19 03:55:37;;;;;;;4.57;3.17;;;1.30;99.90;;;;;;5071780;28;20432;-69
2023/01/19 03:58:02;;;;;;;5.70;3.53;;;1.30;99.90;;;;;;5071709;28;20439;-71
2023/01/19 04:00:28;;;;;;;6.33;2.87;;;1.40;99.90;;;;;;5072115;28;20427;-71
2023/01/19 04:02:54;;;;;;;5.57;3.73;;;1.40;99.90;;;;;;5072210;28;20162;-71
2023/01/19 04:05:21;;;;;;;4.80;3.87;;;1.50;99.90;;;;;;5071240;28;20426;-71
2023/01/19 04:07:50;;;;;;;4.00;3.10;;;1.60;99.90;;;;;;5071963;28;20657;-71
2023/01/19 04:10:17;;;;;;;5.97;3.10;;;1.70;99.90;;;;;;5070697;28;20414;-70
2023/01/19 04:12:43;;;;;;;4.70;3.83;;;1.70;99.90;;;;;;5071398;28;20403;-71
2023/01/19 04:15:09;;;;;;;5.27;3.60;;;1.80;99.90;;;;;;5071727;28;20461;-71
2023/01/19 04:17:35;;;;;;;5.63;3.70;;;1.80;99.90;;;;;;5071361;28;20190;-71
2023/01/19 04:20:00;;;;;;;4.57;3.03;;;1.90;99.90;;;;;;5072026;28;20416;-72
2023/01/19 04:22:26;;;;;;;5.40;3.63;;;1.90;99.90;;;;;;5071755;28;20166;-72
2023/01/19 04:24:51;;;;;;;5.53;3.30;;;2.00;99.90;;;;;;5071697;28;20169;-74
2023/01/19 04:27:18;;;;;;;3.53;2.67;;;2.00;99.90;;;;;;5071644;28;20208;-73
2023/01/19 04:29:43;;;;;;;4.03;3.03;;;2.10;99.90;;;;;;5067054;28;20204;-73
2023/01/19 04:32:09;;;;;;;11.30;3.83;;;2.10;99.90;;;;;;5051801;28;20778;-70
2023/01/19 04:34:34;;;;;;;5.03;3.17;;;2.20;99.90;;;;;;5051549;28;20505;-71
2023/01/19 04:37:00;;;;;;;3.80;2.77;;;2.30;99.90;;;;;;5051770;28;20201;-72
2023/01/19 04:39:26;;;;;;;5.20;3.50;;;2.40;99.90;;;;;;5050361;28;20191;-73
2023/01/19 04:41:52;;;;;;;3.93;2.93;;;2.40;99.90;;;;;;5069211;28;20262;-72
2023/01/19 04:44:17;;;;;;;6.17;3.10;;;2.50;99.90;;;;;;5071107;28;20506;-72
2023/01/19 04:46:43;;;;;;;5.27;3.67;;;2.60;99.90;;;;;;5071210;28;20447;-72
2023/01/19 04:49:09;;;;;;;4.80;3.00;;;2.60;99.90;;;;;;5071028;28;20172;-71
2023/01/19 04:51:35;;;;;;;5.80;2.90;;;2.60;99.90;;;;;;5070939;28;20185;-72
2023/01/19 04:54:01;;;;;;;5.23;3.30;;;2.60;99.90;;;;;;5071374;28;20693;-72
2023/01/19 04:56:27;;;;;;;6.40;2.77;;;2.70;99.90;;;;;;5070052;28;20428;-71
2023/01/19 04:58:53;;;;;;;8.10;3.00;;;2.70;99.90;;;;;;5071297;28;20198;-71
2023/01/19 05:01:19;;;;;;;5.43;3.50;;;2.80;99.90;;;;;;5071456;28;20930;-73
2023/01/19 05:03:44;;;;;;;5.93;3.90;;;2.90;99.90;;;;;;5071538;28;20178;-73
2023/01/19 05:06:10;;;;;;;5.30;3.27;;;2.80;99.90;;;;;;5071060;28;20198;-72
2023/01/19 05:08:36;;;;;;;10.10;2.87;;;2.90;99.90;;;;;;5071455;28;20182;-72
2023/01/19 05:11:01;;;;;;;7.33;3.20;;;2.90;99.90;;;;;;5070696;28;20163;-71
2023/01/19 05:13:27;;;;;;;8.03;4.33;;;3.00;99.90;;;;;;5071380;28;20542;-71
2023/01/19 05:15:52;;;;;;;9.57;4.60;;;3.00;99.90;;;;;;5071149;28;20174;-71
2023/01/19 05:18:18;;;;;;;40.13;15.97;;;3.00;99.90;;;;;;5071298;28;20189;-71
2023/01/19 05:20:43;;;;;;;6.73;4.70;;;3.10;99.90;;;;;;5071331;28;20177;-72
2023/01/19 05:23:09;;;;;;;4.87;3.37;;;2.90;99.90;;;;;;5063939;28;20179;-72
2023/01/19 05:25:34;;;;;;;9.53;3.60;;;2.90;99.90;;;;;;5053255;28;20167;-72
2023/01/19 05:28:02;;;;;;;6.33;4.60;;;2.90;99.90;;;;;;5054747;28;20730;-72
2023/01/19 05:30:28;;;;;;;12.00;4.63;;;2.80;99.90;;;;;;5055003;28;20156;-72
2023/01/19 05:32:53;;;;;;;18.27;4.43;;;2.80;99.90;;;;;;5054779;28;20455;-72
2023/01/19 05:35:19;;;;;;;7.40;4.90;;;2.80;99.90;;;;;;5060600;28;20567;-73
2023/01/19 05:37:44;;;;;;;8.07;4.53;;;2.80;99.90;;;;;;5074308;28;20203;-72
2023/01/19 05:40:10;;;;;;;8.77;3.63;;;2.70;99.90;;;;;;5074597;28;20217;-71
2023/01/19 05:42:36;;;;;;;7.60;4.93;;;2.70;99.90;;;;;;5073333;28;20651;-72
2023/01/19 05:45:02;;;;;;;7.20;4.60;;;2.70;99.90;;;;;;5074117;28;20178;-72
2023/01/19 05:47:30;;;;;;;11.10;5.07;;;2.80;99.90;;;;;;5067989;28;20214;-72
2023/01/19 05:49:56;;;;;;;6.90;4.60;;;2.60;99.90;;;;;;5054544;28;20408;-71
2023/01/19 05:52:23;;;;;;;13.67;4.70;;;2.60;99.90;;;;;;5054709;28;20892;-71
2023/01/19 05:54:50;;;;;;;10.13;5.10;;;2.50;99.90;;;;;;5054237;28;20415;-71
2023/01/19 05:57:16;;;;;;;10.37;5.73;;;2.40;99.90;;;;;;5054434;28;20433;-72
2023/01/19 05:59:41;;;;;;;7.83;5.23;;;2.20;99.90;;;;;;5054448;28;20770;-71
2023/01/19 06:02:07;;;;;;;10.00;5.40;;;2.10;99.90;;;;;;5054315;28;20177;-73
2023/01/19 06:04:33;;;;;;;7.70;4.90;;;2.00;99.90;;;;;;5054145;28;20178;-73
2023/01/19 06:06:58;;;;;;;10.30;5.40;;;2.00;99.90;;;;;;5054063;28;20817;-73
2023/01/19 06:09:24;;;;;;;8.53;5.43;;;2.00;99.90;;;;;;5054206;28;20178;-72
2023/01/19 06:11:54;;;;;;;5.77;3.60;;;1.80;99.90;;;;;;5060376;28;20173;-73
2023/01/19 06:14:20;;;;;;;9.20;4.90;;;1.70;99.90;;;;;;5073911;28;20192;-73
2023/01/19 06:16:45;;;;;;;6.43;3.60;;;1.60;99.90;;;;;;5073924;28;20408;-73
2023/01/19 06:19:11;;;;;;;5.20;3.30;;;1.50;99.90;;;;;;5072837;28;20261;-73
2023/01/19 06:21:37;;;;;;;6.17;3.20;;;1.40;99.90;;;;;;5074014;28;20231;-73
2023/01/19 06:24:02;;;;;;;6.00;4.67;;;1.30;99.90;;;;;;5063144;28;20629;-73
2023/01/19 06:26:28;;;;;;;6.07;3.93;;;1.30;99.90;;;;;;5053632;28;20467;-73
2023/01/19 06:28:54;;;;;;;4.30;3.03;;;1.30;99.90;;;;;;5053896;28;20189;-73
2023/01/19 06:31:19;;;;;;;3.60;3.10;;;1.40;99.90;;;;;;5052580;28;20171;-74
2023/01/19 06:33:45;;;;;;;5.67;3.80;;;1.30;99.90;;;;;;5053781;28;20534;-73
2023/01/19 06:36:11;;;;;;;4.40;3.73;;;1.30;99.90;;;;;;5053445;28;20178;-73
2023/01/19 06:38:36;;;;;;;3.70;3.37;;;1.40;99.90;;;;;;5053460;28;20981;-74
2023/01/19 06:41:03;;;;;;;6.17;3.73;;;1.40;99.90;;;;;;5053673;28;20177;-74
2023/01/19 06:43:30;;;;;;;4.77;3.83;;;1.40;99.90;;;;;;5053868;28;20163;-74
2023/01/19 06:45:56;;;;;;;4.40;3.80;;;1.40;99.90;;;;;;5053084;28;20915;-74
2023/01/19 06:48:22;;;;;;;6.30;3.97;;;1.50;99.90;;;;;;5066477;28;20519;-73
2023/01/19 06:50:48;;;;;;;5.13;3.80;;;1.40;99.90;;;;;;5073389;28;20421;-74
2023/01/19 06:53:15;;;;;;;6.90;4.33;;;1.50;99.90;;;;;;5070238;28;20416;-74
2023/01/19 06:55:41;;;;;;;7.47;4.70;;;1.40;99.90;;;;;;5072682;28;20412;-73
2023/01/19 06:58:07;;;;;;;8.53;5.73;;;1.40;99.90;;;;;;5072070;28;20475;-74
2023/01/19 07:00:33;;;;;;;9.97;5.23;;;1.50;99.90;;;;;;5073111;28;20448;-74
2023/01/19 07:02:58;;;;;;;8.27;4.97;;;1.40;99.90;;;;;;5069931;28;20181;-74
2023/01/19 07:05:24;;;;;;;8.07;5.40;;;1.40;99.90;;;;;;5052794;28;20224;-74
2023/01/19 07:07:54;;;;;;;6.40;4.60;;;1.40;99.90;;;;;;5052837;28;20236;-74
2023/01/19 07:10:20;;;;;;;7.40;4.67;;;1.40;99.90;;;;;;5053062;28;20167;-73
2023/01/19 07:12:46;;;;;;;6.73;5.10;;;1.40;99.90;;;;;;5051733;28;20409;-74
2023/01/19 07:15:13;;;;;;;6.53;5.30;;;1.50;99.90;;;;;;5057211;28;20416;-74
2023/01/19 07:17:41;;;;;;;11.17;5.33;;;1.50;99.90;;;;;;5071173;28;20435;-74
2023/01/19 07:20:11;;;;;;;6.67;5.30;;;1.50;99.90;;;;;;5072779;28;20486;-74
2023/01/19 07:22:37;;;;;;;8.93;5.70;;;1.40;99.90;;;;;;5072788;28;21065;-74
2023/01/19 07:25:03;;;;;;;8.90;5.73;;;1.50;99.90;;;;;;5072687;28;20486;-74
2023/01/19 07:27:29;;;;;;;12.80;4.97;;;1.50;99.90;;;;;;5065628;28;20504;-74
2023/01/19 07:29:54;;;;;;;8.73;6.07;;;1.50;99.90;;;;;;5051389;28;20454;-74
2023/01/19 07:32:20;;;;;;;7.57;5.30;;;1.50;99.90;;;;;;5052664;28;20173;-74
2023/01/19 07:34:46;;;;;;;9.03;6.73;;;1.60;99.90;;;;;;5050942;28;20180;-73
2023/01/19 07:37:12;;;;;;;12.17;7.50;;;1.50;99.90;;;;;;5052483;28;20258;-74
2023/01/19 07:39:37;;;;;;;9.70;7.33;;;1.60;99.90;;;;;;5055293;28;20202;-74
2023/01/19 07:42:03;;;;;;;21.43;5.90;;;1.60;99.90;;;;;;5052270;28;20489;-74
2023/01/19 07:44:28;;;;;;;14.60;8.43;;;1.60;99.90;;;;;;5052066;28;20544;-74
2023/01/19 07:46:54;;;;;;;12.10;6.77;;;1.60;99.90;;;;;;5051472;28;20201;-74
2023/01/19 07:49:20;;;;;;;14.97;8.23;;;1.60;99.90;;;;;;5052360;28;20175;-74
2023/01/19 07:51:45;;;;;;;12.10;7.50;;;1.60;99.90;;;;;;5070944;28;20257;-74
2023/01/19 07:54:11;;;;;;;13.07;6.30;;;1.70;99.90;;;;;;5072087;28;20175;-74
2023/01/19 07:56:36;;;;;;;11.07;7.77;;;1.60;99.90;;;;;;5070692;28;20181;-74
2023/01/19 07:59:02;;;;;;;10.90;6.40;;;1.70;99.90;;;;;;5070827;28;20299;-74
2023/01/19 08:01:28;;;;;;;12.83;7.77;;;1.60;99.90;;;;;;5069594;28;20174;-74
2023/01/19 08:03:54;;;;;;;12.93;7.73;;;1.70;99.90;;;;;;5051944;28;20269;-74
2023/01/19 08:06:22;;;;;;;11.60;7.20;;;1.70;99.90;;;;;;5051560;28;20449;-74
2023/01/19 08:08:47;;;;;;;13.53;7.20;;;1.70;99.90;;;;;;5050673;28;20200;-74
2023/01/19 08:11:14;;;;;;;14.50;6.93;;;1.80;99.90;;;;;;5051618;28;20406;-74
2023/01/19 08:13:39;;;;;;;11.03;7.33;;;1.80;99.90;;;;;;5053393;28;20313;-74
2023/01/19 08:16:05;;;;;;;13.33;7.23;;;1.80;99.90;;;;;;5071750;28;20439;-74
2023/01/19 08:18:31;;;;;;;7.23;5.60;;;1.90;99.90;;;;;;5071513;28;20424;-74
2023/01/19 08:21:00;;;;;;;14.90;6.90;;;1.80;99.90;;;;;;5071660;28;20166;-74
2023/01/19 08:23:26;;;;;;;11.50;5.60;;;1.90;99.90;;;;;;5070571;28;20212;-74
2023/01/19 08:25:53;;;;;;;9.90;6.30;;;1.90;99.90;;;;;;5065957;28;20421;-74
2023/01/19 08:28:19;;;;;;;17.43;7.80;;;2.00;99.90;;;;;;5070305;28;20549;-74
2023/01/19 08:30:52;;;;;;;17.47;7.87;;;2.00;99.90;;;;;;5071485;28;20435;-74
2023/01/19 08:33:18;;;;;;;19.20;7.60;;;2.10;99.90;;;;;;5070488;28;20428;-74
2023/01/19 08:35:47;;;;;;;16.40;8.43;;;2.10;99.90;;;;;;5071366;28;20407;-73
2023/01/19 08:38:14;;;;;;;12.57;7.53;;;2.20;99.90;;;;;;5065180;28;20465;-74
2023/01/19 08:40:40;;;;;;;10.10;6.60;;;2.20;99.90;;;;;;5050204;28;20429;-74
2023/01/19 08:43:16;;;;;;;15.80;6.93;;;2.30;99.90;;;;;;5051677;28;20408;-74
2023/01/19 08:45:49;;;;;;;18.43;8.70;;;2.40;99.90;;;;;;5049807;28;20417;-73
2023/01/19 08:48:22;;;;;;;9.67;7.67;;;2.40;99.90;;;;;;5051425;28;20464;-74
2023/01/19 08:50:49;;;;;;;14.87;8.37;;;2.40;99.90;;;;;;5060828;28;20808;-74
2023/01/19 08:53:19;;;;;;;13.57;7.37;;;2.40;99.90;;;;;;5071554;28;20475;-74
2023/01/19 08:55:45;;;;;;;15.37;7.77;;;2.30;99.90;;;;;;5068273;28;20797;-73
2023/01/19 08:58:11;;;;;;;16.57;8.60;;;2.50;99.90;;;;;;5062072;28;20442;-74
2023/01/19 09:00:38;;;;;;;21.73;9.00;;;2.50;99.90;;;;;;5063984;28;20418;-73
2023/01/19 09:03:06;;;;;;;16.50;8.83;;;2.60;99.90;;;;;;5066358;28;20182;-75
2023/01/19 09:05:36;;;;;;;20.30;9.97;;;2.50;99.90;;;;;;5064884;28;20416;-74
2023/01/19 09:08:03;;;;;;;14.20;9.43;;;2.60;99.90;;;;;;5065926;28;20455;-74
2023/01/19 09:10:34;;;;;;;22.00;9.10;;;2.60;99.90;;;;;;5062103;28;20499;-74
2023/01/19 09:12:59;;;;;;;17.50;9.77;;;2.60;99.90;;;;;;5065125;28;20408;-74
2023/01/19 09:15:25;;;;;;;22.90;10.63;;;2.60;99.90;;;;;;5062343;28;20416;-74
2023/01/19 09:17:51;;;;;;;16.67;9.80;;;2.70;99.90;;;;;;5065563;28;20194;-74
2023/01/19 09:20:17;;;;;;;13.40;8.90;;;2.80;99.90;;;;;;5065931;28;20163;-74
2023/01/19 09:22:42;;;;;;;19.37;9.43;;;2.70;99.90;;;;;;5062782;28;20423;-74
2023/01/19 09:25:08;;;;;;;16.53;10.07;;;2.70;99.90;;;;;;5063226;28;20174;-74
2023/01/19 09:27:34;;;;;;;16.17;11.07;;;2.80;99.90;;;;;;5064290;28;20206;-74
2023/01/19 09:30:00;;;;;;;15.30;9.43;;;2.80;99.90;;;;;;5064303;28;20466;-74
2023/01/19 09:32:26;;;;;;;13.80;8.80;;;2.80;99.90;;;;;;5065740;28;20440;-74
2023/01/19 09:34:52;;;;;;;18.20;9.37;;;2.90;99.90;;;;;;5060847;28;20163;-74
2023/01/19 09:37:18;;;;;;;20.20;10.40;;;3.00;99.90;;;;;;5063083;28;20194;-71
2023/01/19 09:39:44;;;;;;;17.13;9.77;;;3.10;99.90;;;;;;5061650;28;20876;-71
2023/01/19 09:42:15;;;;;;;19.83;10.20;;;3.20;99.90;;;;;;5065491;28;20566;-71
2023/01/19 09:44:43;;;;;;;17.57;11.07;;;3.30;99.90;;;;;;5064720;28;20250;-71
2023/01/19 09:47:14;;;;;;;20.60;9.93;;;3.40;99.90;;;;;;5064420;28;20452;-71
2023/01/19 09:49:44;;;;;;;21.73;8.90;;;3.20;99.90;;;;;;5063118;28;20409;-71
2023/01/19 09:52:12;;;;;;;21.93;11.70;;;3.10;99.90;;;;;;5064724;28;20420;-71
2023/01/19 09:54:55;;;;;;;21.43;10.00;;;2.90;99.90;;;;;;5063518;28;20405;-71
2023/01/19 09:57:24;;;;;;;17.60;9.30;;;2.90;99.90;;;;;;5065282;28;20455;-74
2023/01/19 09:59:50;;;;;;;20.27;9.50;;;2.80;99.90;;;;;;5063764;28;20455;-74
2023/01/19 10:02:24;;;;;;;26.23;10.43;;;2.80;99.90;;;;;;5062142;28;20409;-74
2023/01/19 10:04:53;;;;;;;16.97;9.13;;;2.80;99.90;;;;;;5062300;28;20413;-74
2023/01/19 10:08:12;;;;;;;24.70;10.90;;;2.70;99.90;;;;;;5063000;28;20879;-71
2023/01/19 10:10:41;;;;;;;20.37;9.67;;;2.80;99.90;;;;;;5038864;28;20432;-71
2023/01/19 10:13:19;;;;;;;20.00;10.90;;;2.90;99.90;;;;;;5060304;28;20499;-74
2023/01/19 10:15:54;;;;;;;18.83;10.40;;;3.10;99.90;;;;;;5063859;28;20411;-74
2023/01/19 10:18:31;;;;;;;17.93;8.83;;;3.10;99.90;;;;;;5067287;28;20432;-74
2023/01/19 10:21:09;;;;;;;17.93;9.47;;;3.20;99.90;;;;;;5064354;28;20404;-74
2023/01/19 10:23:47;;;;;;;19.40;11.70;;;3.30;99.90;;;;;;5063002;28;20405;-74
2023/01/19 10:26:16;;;;;;;23.80;10.67;;;3.40;99.90;;;;;;5061739;28;20417;-74
2023/01/19 10:28:44;;;;;;;16.03;9.40;;;3.50;99.90;;;;;;5062300;28;20447;-74
2023/01/19 10:31:11;;;;;;;23.03;12.10;;;3.50;99.90;;;;;;5064045;28;20491;-74
2023/01/19 10:33:38;;;;;;;18.43;10.83;;;3.50;99.90;;;;;;5063013;28;20764;-74
2023/01/19 10:36:41;;;;;;;17.60;11.30;;;3.60;99.90;;;;;;5058076;28;20792;-74
2023/01/19 10:39:10;;;;;;;19.90;11.40;;;3.60;99.90;;;;;;5053048;28;20437;-74
2023/01/19 10:41:50;;;;;;;17.33;10.83;;;3.70;99.90;;;;;;5053265;28;20459;-74
2023/01/19 10:44:44;;;;;;;23.47;10.87;;;3.80;99.90;;;;;;5053102;28;20421;-74
2023/01/19 10:47:18;;;;;;;23.20;10.77;;;3.80;99.90;;;;;;5051122;28;20667;-74
2023/01/19 10:49:45;;;;;;;24.07;13.33;;;4.00;99.90;;;;;;5053122;28;20433;-74
2023/01/19 10:52:32;;;;;;;16.50;11.07;;;4.10;99.90;;;;;;5060200;28;20412;-74
2023/01/19 10:55:00;;;;;;;22.90;11.03;;;4.20;99.90;;;;;;5072624;28;20933;-74
2023/01/19 10:57:42;;;;;;;24.67;14.43;;;4.30;99.90;;;;;;5072240;28;20418;-74
2023/01/19 11:00:36;;;;;;;22.23;12.40;;;4.40;99.90;;;;;;5065912;28;20173;-74
2023/01/19 11:03:20;;;;;;;22.07;11.93;;;4.70;99.90;;;;;;5053044;28;20406;-74
2023/01/19 11:05:46;;;;;;;19.83;11.27;;;4.90;99.90;;;;;;5060696;28;20427;-74
2023/01/19 11:08:29;;;;;;;22.20;10.67;;;5.00;99.90;;;;;;5072638;28;20452;-74
2023/01/19 11:11:07;;;;;;;19.23;10.03;;;5.00;99.90;;;;;;5058379;28;20170;-74
2023/01/19 11:13:37;;;;;;;17.77;11.13;;;5.10;99.90;;;;;;5060786;28;20410;-74
2023/01/19 11:16:26;;;;;;;18.33;11.37;;;5.20;99.90;;;;;;5060854;28;20774;-71
2023/01/19 11:18:54;;;;;;;21.17;10.53;;;5.20;99.90;;;;;;5061550;28;20918;-71
2023/01/19 11:21:24;;;;;;;15.50;10.10;;;5.40;99.90;;;;;;5061211;28;20408;-74
2023/01/19 11:23:59;;;;;;;22.43;11.77;;;5.50;99.90;;;;;;5076956;28;20401;-74
2023/01/19 11:26:32;;;;;;;27.53;13.87;;;7.10;99.90;;;;;;5059078;28;20786;-74
2023/01/19 11:29:01;;;;;;;17.10;10.90;;;9.40;99.90;;;;;;5061157;28;20432;-74
2023/01/19 11:31:27;;;;;;;17.03;9.27;;;12.20;99.90;;;;;;5060962;28;20480;-72
2023/01/19 11:33:55;;;;;;;14.37;6.63;;;14.00;99.90;;;;;;5062066;28;20404;-72
2023/01/19 11:36:22;;;;;;;9.40;7.30;;;15.50;99.90;;;;;;5062593;28;20163;-72
2023/01/19 11:38:50;;;;;;;11.27;7.37;;;16.00;99.30;;;;;;5060006;28;20476;-72
2023/01/19 11:41:20;;;;;;;14.47;8.03;;;15.80;93.90;;;;;;5061907;28;20412;-72
2023/01/19 11:43:53;;;;;;;11.37;7.40;;;15.60;93.00;;;;;;5062590;28;20533;-72
2023/01/19 11:46:21;;;;;;;11.33;7.50;;;16.20;94.90;;;;;;5056965;28;20824;-72
2023/01/19 11:49:02;;;;;;;15.00;7.50;;;15.90;86.40;;;;;;5056178;28;20444;-71
2023/01/19 11:51:34;;;;;;;13.10;7.27;;;15.10;80.50;;;;;;5072133;28;20473;-74
2023/01/19 11:54:06;;;;;;;10.53;7.30;;;14.40;86.40;;;;;;5071901;28;20436;-71
2023/01/19 11:56:31;;;;;;;13.13;7.20;;;12.50;88.20;;;;;;5071709;28;20404;-71
2023/01/19 11:58:57;;;;;;;18.93;7.20;;;10.80;96.10;;;;;;5071856;28;20438;-71
2023/01/19 12:01:26;;;;;;;16.10;8.80;;;9.70;99.90;;;;;;5051308;28;20265;-73
2023/01/19 12:04:00;;;;;;;16.27;7.80;;;9.00;99.90;;;;;;5050570;28;20178;-73
2023/01/19 12:06:35;;;;;;;10.23;7.20;;;8.50;99.90;;;;;;5051372;28;20449;-73
2023/01/19 12:09:23;;;;;;;12.90;7.70;;;7.80;99.90;;;;;;5051765;28;20474;-73
2023/01/19 12:11:57;;;;;;;24.60;7.90;;;7.40;99.90;;;;;;5055605;28;20420;-73
2023/01/19 12:14:47;;;;;;;11.97;7.00;;;7.30;99.90;;;;;;5071456;28;20397;-73
2023/01/19 12:17:36;;;;;;;11.83;7.70;;;7.50;99.90;;;;;;5071345;28;20432;-73
2023/01/19 12:20:45;;;;;;;9.37;6.77;;;7.70;99.90;;;;;;5072042;28;20403;-73
2023/01/19 12:23:32;;;;;;;21.90;8.70;;;8.00;99.90;;;;;;5029537;28;20425;-74
2023/01/19 12:26:21;;;;;;;22.23;7.10;;;7.80;99.90;;;;;;5051449;28;20423;-74
2023/01/19 12:28:49;;;;;;;15.30;9.40;;;8.10;99.90;;;;;;5067868;28;20445;-75
2023/01/19 12:31:20;;;;;;;19.23;8.33;;;8.70;99.90;;;;;;5071940;28;20392;-73
2023/01/19 12:33:46;;;;;;;11.83;8.80;;;8.40;99.90;;;;;;5074584;28;20893;-73
2023/01/19 12:36:15;;;;;;;14.87;7.10;;;8.70;99.90;;;;;;5078151;28;20401;-73
2023/01/19 12:39:14;;;;;;;12.93;7.40;;;8.90;99.90;;;;;;5063382;28;20792;-72
2023/01/19 12:41:40;;;;;;;17.43;7.03;;;8.70;99.90;;;;;;5054088;28;20421;-72
2023/01/19 12:44:13;;;;;;;13.50;7.60;;;8.40;99.90;;;;;;5058367;28;20922;-73
2023/01/19 12:46:56;;;;;;;12.30;7.47;;;8.00;99.90;;;;;;5056882;28;20453;-72
2023/01/19 12:50:04;;;;;;;13.37;8.10;;;7.70;99.90;;;;;;5059637;28;20390;-75
2023/01/19 12:52:33;;;;;;;10.30;7.07;;;7.30;99.90;;;;;;5057727;28;20998;-73
2023/01/19 12:55:02;;;;;;;12.43;7.27;;;7.00;99.90;;;;;;5076806;28;20457;-74
2023/01/19 12:57:39;;;;;;;16.43;7.70;;;6.90;99.90;;;;;;5078227;28;20483;-74
2023/01/19 13:00:28;;;;;;;23.33;8.20;;;6.60;99.90;;;;;;5078251;28;20428;-75
2023/01/19 13:02:59;;;;;;;13.73;7.60;;;6.50;99.90;;;;;;5056326;28;20425;-72
2023/01/19 13:05:31;;;;;;;11.27;7.60;;;6.60;99.90;;;;;;5057802;28;20551;-72
2023/01/19 13:08:07;;;;;;;15.53;7.60;;;6.50;99.90;;;;;;5056747;28;20457;-72
2023/01/19 13:10:54;;;;;;;14.60;7.40;;;6.80;99.90;;;;;;5058176;28;20484;-72